Time;durP1;ratioP1;P1;durP2;ratioP2;P2;SDS_P1;SDS_P2;PMS_P1;PMS_P2;Temp;Humidity;BMP_temperature;BMP_pressure;BME280_temperature;BME280_humidity;BME280_pressure;Samples;Min_cycle;Max_cycle;Signal;HPM_P1;HPM_P2
2023/05/19 00:02:04;;;;;;;11.85;6.10;;;12.90;67.80;;;;;;5118172;28;20032;-84
2023/05/19 00:04:30;;;;;;;;;;;12.90;67.70;;;;;;5118701;28;20111;-85
2023/05/19 00:06:57;;;;;;;12.18;6.15;;;12.90;67.70;;;;;;5135233;27;19927;-85
2023/05/19 00:09:23;;;;;;;12.75;5.80;;;12.90;68.90;;;;;;5118103;28;20043;-84
2023/05/19 00:11:49;;;;;;;12.70;6.70;;;12.80;68.10;;;;;;5101433;28;20103;-84
2023/05/19 00:14:15;;;;;;;10.02;5.65;;;12.80;68.50;;;;;;5101548;28;20024;-84
2023/05/19 00:16:42;;;;;;;9.32;6.55;;;12.80;68.70;;;;;;5101790;28;20374;-84
2023/05/19 00:19:08;;;;;;;10.45;5.85;;;12.80;68.60;;;;;;5119253;28;20015;-84
2023/05/19 00:21:36;;;;;;;9.43;6.47;;;12.80;68.80;;;;;;5100148;28;20035;-85
2023/05/19 00:24:02;;;;;;;10.88;5.95;;;12.80;68.90;;;;;;5117704;28;20027;-84
2023/05/19 00:26:28;;;;;;;13.38;5.95;;;12.80;68.80;;;;;;5116710;28;20450;-84
2023/05/19 00:28:54;;;;;;;9.32;6.10;;;12.80;68.90;;;;;;5116481;28;20208;-84
2023/05/19 00:31:20;;;;;;;15.48;6.25;;;12.80;68.80;;;;;;5117387;28;20023;-85
2023/05/19 00:33:45;;;;;;;14.90;6.55;;;12.80;68.70;;;;;;5099247;28;20023;-84
2023/05/19 00:36:11;;;;;;;12.10;5.97;;;12.80;68.70;;;;;;5099466;28;20027;-84
2023/05/19 00:38:37;;;;;;;10.63;5.63;;;12.80;70.00;;;;;;5115853;28;20038;-85
2023/05/19 00:41:04;;;;;;;10.95;5.53;;;12.70;69.40;;;;;;5098202;28;20122;-84
2023/05/19 00:43:33;;;;;;;8.85;5.15;;;12.70;69.90;;;;;;5116578;28;20024;-85
2023/05/19 00:45:58;;;;;;;10.73;5.63;;;12.70;69.90;;;;;;5116140;28;20511;-84
2023/05/19 00:48:25;;;;;;;9.82;6.15;;;12.60;70.10;;;;;;5116056;28;20019;-84
2023/05/19 00:50:53;;;;;;;9.18;5.25;;;12.70;70.30;;;;;;5116448;28;20054;-83
2023/05/19 00:53:19;;;;;;;9.80;5.47;;;12.70;70.30;;;;;;5118916;27;20138;-85
2023/05/19 00:55:46;;;;;;;8.40;4.75;;;12.60;70.60;;;;;;5101576;27;20051;-84
2023/05/19 00:58:12;;;;;;;10.25;5.30;;;12.60;70.70;;;;;;5117811;27;20027;-84
2023/05/19 01:00:38;;;;;;;8.82;5.15;;;12.70;70.80;;;;;;5118194;27;20094;-84
2023/05/19 01:03:09;;;;;;;11.00;5.53;;;12.60;70.80;;;;;;5135697;27;20077;-84
2023/05/19 01:05:52;;;;;;;11.85;4.85;;;12.60;70.90;;;;;;5118090;27;20123;-85
2023/05/19 01:08:18;;;;;;;9.38;5.30;;;12.60;71.30;;;;;;5118727;27;20455;-84
2023/05/19 01:10:44;;;;;;;9.80;5.80;;;12.60;71.40;;;;;;5101261;27;20199;-84
2023/05/19 01:13:10;;;;;;;11.00;5.35;;;12.60;71.40;;;;;;5101094;27;20047;-85
2023/05/19 01:15:50;;;;;;;10.93;5.50;;;12.60;72.20;;;;;;5117550;27;20060;-84
2023/05/19 01:18:25;;;;;;;10.57;5.32;;;12.60;71.30;;;;;;5117166;27;20031;-84
2023/05/19 01:21:04;;;;;;;9.52;5.50;;;12.50;71.20;;;;;;5134320;27;20031;-85
2023/05/19 01:23:58;;;;;;;9.27;4.97;;;12.50;71.50;;;;;;5117017;27;20114;-84
2023/05/19 01:27:00;;;;;;;11.57;5.15;;;12.50;71.70;;;;;;5133886;27;20504;-84
2023/05/19 01:29:26;;;;;;;12.15;5.00;;;12.40;72.00;;;;;;5116020;27;20065;-84
2023/05/19 01:31:54;;;;;;;12.93;4.65;;;12.40;72.30;;;;;;5113614;28;20031;-85
2023/05/19 01:34:22;;;;;;;9.45;4.57;;;12.40;72.30;;;;;;5097837;28;20059;-84
2023/05/19 01:36:49;;;;;;;8.80;5.18;;;12.40;72.20;;;;;;5114684;28;20108;-84
2023/05/19 01:39:15;;;;;;;8.75;4.65;;;12.40;72.10;;;;;;5113570;28;20120;-84
2023/05/19 01:41:42;;;;;;;12.32;5.13;;;12.30;72.10;;;;;;5096347;28;20477;-84
2023/05/19 01:44:09;;;;;;;8.98;4.43;;;12.30;72.30;;;;;;5113712;28;20103;-84
2023/05/19 01:46:36;;;;;;;9.90;4.75;;;12.30;72.70;;;;;;5112800;28;20040;-84
2023/05/19 01:49:02;;;;;;;9.40;4.90;;;12.20;72.90;;;;;;5112963;28;20071;-84
2023/05/19 01:51:28;;;;;;;10.27;5.05;;;12.20;73.40;;;;;;5096321;28;20039;-84
2023/05/19 01:53:54;;;;;;;7.60;4.60;;;12.30;73.60;;;;;;5095701;28;20036;-84
2023/05/19 01:56:42;;;;;;;13.18;5.55;;;12.30;73.60;;;;;;5112787;28;20030;-84
2023/05/19 01:59:22;;;;;;;10.48;5.13;;;12.30;73.70;;;;;;5112234;28;20023;-84
2023/05/19 02:01:56;;;;;;;8.90;4.97;;;12.20;73.60;;;;;;5112373;28;20015;-84
2023/05/19 02:04:31;;;;;;;10.70;4.88;;;12.20;73.70;;;;;;5112379;28;20034;-84
2023/05/19 02:07:00;;;;;;;9.50;4.85;;;12.20;73.90;;;;;;5113567;28;20012;-84
2023/05/19 02:09:44;;;;;;;11.30;5.72;;;12.20;74.00;;;;;;5113203;28;20512;-84
2023/05/19 02:12:23;;;;;;;10.45;5.25;;;12.20;74.10;;;;;;5118817;28;20111;-85
2023/05/19 02:15:12;;;;;;;8.27;4.60;;;12.20;74.30;;;;;;5119592;28;20030;-85
2023/05/19 02:17:41;;;;;;;8.43;4.43;;;12.10;74.80;;;;;;5119005;28;20085;-85
2023/05/19 02:20:10;;;;;;;8.95;4.80;;;12.00;75.00;;;;;;5120002;28;20019;-85
2023/05/19 02:22:36;;;;;;;9.13;5.03;;;12.10;75.20;;;;;;5101998;28;20511;-84
2023/05/19 02:25:02;;;;;;;10.38;4.50;;;12.10;75.30;;;;;;5117981;28;20032;-84
2023/05/19 02:27:28;;;;;;;12.85;5.03;;;12.00;75.30;;;;;;5100873;28;20024;-84
2023/05/19 02:29:54;;;;;;;11.27;5.20;;;12.00;75.80;;;;;;5099955;28;20449;-85
2023/05/19 02:32:20;;;;;;;13.07;5.40;;;12.00;75.90;;;;;;5099859;28;20024;-84
2023/05/19 02:34:47;;;;;;;8.88;4.78;;;12.00;76.10;;;;;;5116661;28;20028;-84
2023/05/19 02:37:15;;;;;;;11.05;4.43;;;12.00;76.30;;;;;;5099826;28;20553;-84
2023/05/19 02:39:41;;;;;;;11.75;5.60;;;11.90;76.30;;;;;;5116465;28;20457;-84
2023/05/19 02:42:07;;;;;;;9.90;4.57;;;11.90;76.40;;;;;;5116934;28;20135;-84
2023/05/19 02:44:33;;;;;;;7.63;4.68;;;11.90;76.30;;;;;;5100032;28;20032;-84
2023/05/19 02:46:59;;;;;;;8.15;4.53;;;11.90;76.30;;;;;;5099025;28;20042;-84
2023/05/19 02:49:24;;;;;;;10.55;4.43;;;11.90;76.50;;;;;;5117518;28;20376;-84
2023/05/19 02:51:50;;;;;;;10.25;4.75;;;11.90;76.60;;;;;;5118169;28;20023;-84
2023/05/19 02:54:16;;;;;;;8.80;4.95;;;11.80;76.80;;;;;;5099068;28;20072;-84
2023/05/19 02:56:41;;;;;;;11.25;5.28;;;11.80;77.10;;;;;;5117050;28;20087;-84
2023/05/19 02:59:07;;;;;;;7.40;4.47;;;11.80;77.00;;;;;;5100092;28;20020;-84
2023/05/19 03:01:33;;;;;;;9.48;4.43;;;11.80;77.30;;;;;;5099761;28;20081;-84
2023/05/19 03:03:58;;;;;;;9.57;4.32;;;11.80;77.40;;;;;;5099187;28;20024;-84
2023/05/19 03:06:24;;;;;;;8.88;4.50;;;11.80;77.30;;;;;;5098799;28;20039;-84
2023/05/19 03:08:50;;;;;;;13.35;5.07;;;11.80;77.20;;;;;;5097868;28;20044;-84
2023/05/19 03:11:16;;;;;;;9.73;4.95;;;11.80;77.40;;;;;;5097842;28;20027;-84
2023/05/19 03:13:42;;;;;;;8.57;4.88;;;11.80;77.50;;;;;;5114414;28;20023;-84
2023/05/19 03:16:07;;;;;;;7.65;4.22;;;11.70;77.60;;;;;;5097343;28;20034;-85
2023/05/19 03:18:34;;;;;;;9.05;4.82;;;11.70;77.80;;;;;;5114135;28;20479;-84
2023/05/19 03:20:59;;;;;;;12.43;5.18;;;11.70;78.10;;;;;;5113845;28;20023;-84
2023/05/19 03:23:26;;;;;;;7.55;4.20;;;11.70;78.10;;;;;;5097121;28;20080;-84
2023/05/19 03:25:55;;;;;;;11.70;4.97;;;11.70;78.10;;;;;;5097976;28;20042;-84
2023/05/19 03:28:22;;;;;;;10.65;4.70;;;11.70;78.10;;;;;;5098087;28;20028;-84
2023/05/19 03:30:49;;;;;;;8.57;4.38;;;11.60;78.20;;;;;;5097754;28;20408;-84
2023/05/19 03:33:15;;;;;;;10.35;4.75;;;11.70;78.30;;;;;;5097408;28;20438;-84
2023/05/19 03:35:41;;;;;;;9.73;4.80;;;11.70;78.30;;;;;;5097226;28;20032;-84
2023/05/19 03:38:06;;;;;;;11.85;4.90;;;11.60;78.40;;;;;;5097392;28;20024;-84
2023/05/19 03:40:32;;;;;;;11.48;4.60;;;11.60;78.60;;;;;;5096847;28;20036;-84
2023/05/19 03:42:59;;;;;;;10.00;5.07;;;11.50;78.50;;;;;;5113854;28;20031;-84
2023/05/19 03:45:25;;;;;;;8.25;4.53;;;11.60;78.80;;;;;;5096689;28;20032;-84
2023/05/19 03:47:51;;;;;;;9.63;4.68;;;11.50;78.80;;;;;;5096414;28;20062;-84
2023/05/19 03:50:16;;;;;;;8.88;4.00;;;11.50;79.00;;;;;;5096362;28;20067;-84
2023/05/19 03:52:45;;;;;;;10.35;5.00;;;11.50;79.20;;;;;;5096361;28;20118;-84
2023/05/19 03:55:11;;;;;;;11.23;4.85;;;11.50;79.30;;;;;;5096455;28;20053;-84
2023/05/19 03:57:37;;;;;;;11.68;4.93;;;11.50;79.70;;;;;;5096234;28;20469;-84
2023/05/19 04:00:04;;;;;;;10.23;4.68;;;11.40;79.50;;;;;;5096303;28;20161;-84
2023/05/19 04:02:30;;;;;;;9.00;4.53;;;11.40;79.30;;;;;;5096422;28;20012;-84
2023/05/19 04:04:56;;;;;;;9.30;4.68;;;11.40;79.20;;;;;;5114104;28;20035;-84
2023/05/19 04:07:22;;;;;;;8.85;4.70;;;11.30;79.50;;;;;;5096310;28;20051;-84
2023/05/19 04:09:49;;;;;;;8.27;4.55;;;11.40;80.00;;;;;;5056954;28;1123138;-84
2023/05/19 04:12:14;;;;;;;11.60;5.00;;;11.40;80.10;;;;;;5113919;28;20062;-84
2023/05/19 04:14:40;;;;;;;10.50;4.20;;;11.40;80.20;;;;;;5096672;28;20019;-84
2023/05/19 04:17:06;;;;;;;8.55;4.35;;;11.30;80.40;;;;;;5113964;28;20061;-84
2023/05/19 04:19:32;;;;;;;8.65;4.60;;;11.40;80.60;;;;;;5114200;28;20020;-84
2023/05/19 04:21:57;;;;;;;14.45;4.30;;;11.40;80.30;;;;;;5097183;28;20030;-84
2023/05/19 04:24:23;;;;;;;9.98;4.70;;;11.40;80.80;;;;;;5113368;28;20114;-83
2023/05/19 04:26:49;;;;;;;10.88;5.15;;;11.30;80.80;;;;;;5096644;28;20400;-84
2023/05/19 04:29:16;;;;;;;7.07;4.75;;;11.40;81.20;;;;;;5096748;28;20027;-84
2023/05/19 04:31:45;;;;;;;8.70;4.40;;;11.40;81.20;;;;;;5113454;28;20472;-84
2023/05/19 04:34:11;;;;;;;11.15;5.57;;;11.40;81.30;;;;;;5096915;28;20541;-84
2023/05/19 04:36:37;;;;;;;8.02;4.50;;;11.50;81.50;;;;;;5114862;28;20052;-84
2023/05/19 04:39:08;;;;;;;9.20;4.55;;;11.50;81.50;;;;;;5096535;28;20081;-84
2023/05/19 04:41:34;;;;;;;11.10;5.07;;;11.50;81.60;;;;;;5097401;28;20043;-84
2023/05/19 04:43:59;;;;;;;8.23;5.00;;;11.50;81.70;;;;;;5096393;28;20039;-84
2023/05/19 04:46:25;;;;;;;8.52;4.47;;;11.50;81.90;;;;;;5113107;28;20484;-85
2023/05/19 04:48:52;;;;;;;10.05;4.85;;;11.50;82.10;;;;;;5113043;28;20035;-84
2023/05/19 04:51:18;;;;;;;10.63;5.20;;;11.50;82.20;;;;;;5096155;28;20492;-84
2023/05/19 04:53:44;;;;;;;10.43;4.57;;;11.50;82.40;;;;;;5095979;28;20020;-84
2023/05/19 04:56:13;;;;;;;9.52;4.55;;;11.40;82.50;;;;;;5096070;28;20327;-84
2023/05/19 04:58:40;;;;;;;9.13;5.05;;;11.40;82.90;;;;;;5112832;28;20019;-84
2023/05/19 05:01:08;;;;;;;11.90;4.95;;;11.40;83.00;;;;;;5096063;28;20388;-84
2023/05/19 05:03:34;;;;;;;10.07;5.05;;;11.40;82.90;;;;;;5112737;28;20034;-84
2023/05/19 05:05:59;;;;;;;9.77;4.93;;;11.40;83.10;;;;;;5113022;28;20027;-84
2023/05/19 05:08:25;;;;;;;8.48;4.80;;;11.40;83.10;;;;;;5095744;28;20031;-84
2023/05/19 05:10:52;;;;;;;9.15;5.15;;;11.40;83.10;;;;;;5096059;28;20067;-85
2023/05/19 05:13:21;;;;;;;12.88;5.07;;;11.40;83.10;;;;;;5113198;28;20136;-85
2023/05/19 05:15:47;;;;;;;10.43;4.97;;;11.50;83.10;;;;;;5112248;28;20457;-84
2023/05/19 05:18:14;;;;;;;9.40;4.68;;;11.60;83.00;;;;;;5095336;28;20556;-84
2023/05/19 05:20:42;;;;;;;11.05;4.75;;;11.60;83.20;;;;;;5112721;28;20027;-84
2023/05/19 05:23:09;;;;;;;10.05;4.75;;;11.60;83.30;;;;;;5112546;28;20027;-84
2023/05/19 05:25:37;;;;;;;9.20;4.43;;;11.50;83.20;;;;;;5112672;28;20027;-85
2023/05/19 05:28:03;;;;;;;12.50;4.90;;;11.60;83.20;;;;;;5112699;27;20114;-84
2023/05/19 05:30:29;;;;;;;10.93;4.80;;;11.60;83.20;;;;;;5095617;28;20024;-84
2023/05/19 05:32:56;;;;;;;8.45;5.10;;;11.70;83.20;;;;;;5112267;28;20028;-84
2023/05/19 05:35:23;;;;;;;7.93;4.68;;;11.70;83.20;;;;;;5112223;28;20015;-84
2023/05/19 05:37:48;;;;;;;11.75;4.88;;;11.70;83.20;;;;;;5095158;28;20066;-84
2023/05/19 05:40:14;;;;;;;10.30;4.85;;;11.70;83.20;;;;;;5095554;28;20473;-84
2023/05/19 05:42:40;;;;;;;10.20;4.95;;;11.80;83.40;;;;;;5112317;28;20028;-84
2023/05/19 05:45:07;;;;;;;10.75;4.53;;;11.80;83.30;;;;;;5112307;28;20023;-85
2023/05/19 05:47:33;;;;;;;13.27;5.05;;;11.80;83.40;;;;;;5095207;28;20469;-84
2023/05/19 05:49:58;;;;;;;9.13;4.68;;;11.80;83.40;;;;;;5095293;28;20019;-84
2023/05/19 05:52:28;;;;;;;10.57;4.68;;;11.90;83.40;;;;;;5112170;28;20020;-84
2023/05/19 05:54:55;;;;;;;10.75;5.10;;;12.00;83.40;;;;;;5095026;28;20157;-84
2023/05/19 05:57:20;;;;;;;11.02;4.82;;;12.00;83.10;;;;;;5112348;28;20024;-84
2023/05/19 05:59:46;;;;;;;11.55;5.60;;;12.10;83.00;;;;;;5112337;28;20023;-84
2023/05/19 06:02:12;;;;;;;10.70;5.32;;;12.10;82.90;;;;;;5113436;28;20473;-84
2023/05/19 06:04:38;;;;;;;10.07;5.10;;;12.10;82.90;;;;;;5113363;28;20058;-84
2023/05/19 06:07:03;;;;;;;10.32;4.97;;;12.20;82.70;;;;;;5131833;28;20027;-85
2023/05/19 06:09:29;;;;;;;11.73;5.07;;;12.30;82.60;;;;;;5097700;28;20051;-84
2023/05/19 06:11:58;;;;;;;9.40;5.20;;;12.20;82.80;;;;;;5115389;28;20051;-84
2023/05/19 06:14:23;;;;;;;8.73;4.95;;;12.30;82.60;;;;;;5131421;28;20084;-84
2023/05/19 06:16:49;;;;;;;11.02;5.15;;;12.40;82.60;;;;;;5115162;28;20023;-85
2023/05/19 06:19:15;;;;;;;10.57;5.20;;;12.40;82.30;;;;;;5115066;28;20524;-85
2023/05/19 06:21:41;;;;;;;8.68;4.97;;;12.40;82.20;;;;;;5115678;28;20392;-84
2023/05/19 06:24:07;;;;;;;8.57;5.03;;;12.40;82.40;;;;;;5132391;28;20027;-84
2023/05/19 06:26:33;;;;;;;9.98;5.03;;;12.50;82.30;;;;;;5115033;28;20114;-84
2023/05/19 06:28:58;;;;;;;10.10;4.63;;;12.50;82.30;;;;;;5114915;28;20023;-84
2023/05/19 06:31:25;;;;;;;10.48;5.07;;;12.60;82.20;;;;;;5114953;28;20039;-84
2023/05/19 06:33:52;;;;;;;11.50;4.45;;;12.60;81.90;;;;;;5098531;28;20055;-84
2023/05/19 06:36:18;;;;;;;10.82;4.53;;;12.70;81.80;;;;;;5115599;28;20018;-84
2023/05/19 06:38:43;;;;;;;9.57;4.93;;;12.70;81.60;;;;;;5132209;28;20031;-85
2023/05/19 06:41:09;;;;;;;10.25;5.00;;;12.70;81.60;;;;;;5098074;28;20050;-84
2023/05/19 06:43:35;;;;;;;9.80;4.88;;;12.80;81.80;;;;;;5097878;28;20027;-84
2023/05/19 06:46:01;;;;;;;10.52;4.90;;;12.80;82.00;;;;;;5132095;28;20032;-84
2023/05/19 06:48:26;;;;;;;10.52;4.82;;;12.90;81.90;;;;;;5114836;28;20035;-84
2023/05/19 06:50:52;;;;;;;12.88;4.75;;;12.90;82.50;;;;;;5098053;28;20031;-84
2023/05/19 06:53:20;;;;;;;9.07;4.68;;;13.00;81.70;;;;;;5132033;28;20023;-84
2023/05/19 06:55:45;;;;;;;9.02;5.00;;;13.00;81.50;;;;;;5133484;27;20418;-84
2023/05/19 06:58:11;;;;;;;10.60;4.43;;;13.00;81.30;;;;;;5126831;27;20026;-84
2023/05/19 07:00:37;;;;;;;12.43;5.32;;;13.10;80.80;;;;;;5130459;27;20053;-84
2023/05/19 07:03:02;;;;;;;7.85;4.20;;;13.10;80.80;;;;;;5123613;27;20024;-84
2023/05/19 07:05:28;;;;;;;7.47;4.82;;;13.10;80.50;;;;;;5095401;28;20044;-82
2023/05/19 07:07:53;;;;;;;10.38;4.68;;;13.20;80.60;;;;;;5114487;28;20031;-84
2023/05/19 07:10:20;;;;;;;11.95;5.43;;;13.30;80.60;;;;;;5080728;28;20052;-84
2023/05/19 07:12:46;;;;;;;11.75;4.45;;;13.30;80.70;;;;;;5116042;28;20096;-84
2023/05/19 07:15:12;;;;;;;8.27;4.68;;;13.40;80.20;;;;;;5080814;28;20053;-84
2023/05/19 07:17:37;;;;;;;8.73;4.57;;;13.40;80.10;;;;;;5097798;28;20626;-84
2023/05/19 07:20:08;;;;;;;8.85;4.47;;;13.50;79.80;;;;;;5097764;28;20106;-84
2023/05/19 07:22:34;;;;;;;9.25;4.15;;;13.60;79.70;;;;;;5098296;28;20024;-85
2023/05/19 07:25:00;;;;;;;8.75;4.35;;;13.70;79.60;;;;;;5097626;28;20020;-84
2023/05/19 07:27:25;;;;;;;10.45;4.25;;;13.70;79.90;;;;;;5097592;28;20446;-84
2023/05/19 07:29:51;;;;;;;9.80;4.10;;;13.80;79.50;;;;;;5097562;28;20028;-84
2023/05/19 07:32:17;;;;;;;9.25;4.00;;;13.90;79.40;;;;;;5097568;28;20061;-84
2023/05/19 07:34:43;;;;;;;12.38;4.60;;;14.00;79.30;;;;;;5097790;28;20059;-84
2023/05/19 07:37:08;;;;;;;8.63;3.42;;;14.10;78.80;;;;;;5080594;28;20412;-84
2023/05/19 07:39:34;;;;;;;8.55;4.03;;;14.20;78.00;;;;;;5114458;28;20022;-84
2023/05/19 07:42:00;;;;;;;5.55;3.60;;;14.30;77.90;;;;;;5080404;28;20084;-84
2023/05/19 07:44:26;;;;;;;7.63;3.55;;;14.40;77.20;;;;;;5097244;28;20490;-84
2023/05/19 07:46:53;;;;;;;9.70;3.25;;;14.50;76.80;;;;;;5097263;28;20076;-84
2023/05/19 07:49:19;;;;;;;5.95;4.00;;;14.50;76.80;;;;;;5097400;28;20066;-84
2023/05/19 07:51:45;;;;;;;8.43;3.50;;;14.60;76.70;;;;;;5080176;28;20031;-84
2023/05/19 07:54:10;;;;;;;11.38;4.03;;;14.80;76.60;;;;;;5114219;28;20080;-84
2023/05/19 07:56:36;;;;;;;7.30;3.92;;;14.80;76.50;;;;;;5114358;28;20032;-84
2023/05/19 07:59:03;;;;;;;8.00;3.92;;;14.90;76.20;;;;;;5113882;28;20027;-84
2023/05/19 08:01:29;;;;;;;10.23;3.67;;;14.90;76.00;;;;;;5114193;28;20412;-84
2023/05/19 08:03:55;;;;;;;9.75;3.88;;;15.00;75.60;;;;;;5096983;28;20020;-84
2023/05/19 08:06:22;;;;;;;9.68;3.95;;;15.00;75.10;;;;;;5113303;28;20027;-84
2023/05/19 08:08:47;;;;;;;6.85;3.60;;;15.00;74.90;;;;;;5079307;28;20362;-84
2023/05/19 08:11:13;;;;;;;6.05;3.47;;;15.10;75.00;;;;;;5113487;28;20115;-84
2023/05/19 08:13:39;;;;;;;5.30;3.42;;;15.20;74.50;;;;;;5079773;28;20072;-84
2023/05/19 08:16:04;;;;;;;7.07;3.33;;;15.30;74.70;;;;;;5096454;28;20536;-84
2023/05/19 08:18:30;;;;;;;6.47;3.40;;;15.40;74.60;;;;;;5096294;28;20134;-84
2023/05/19 08:20:56;;;;;;;5.90;3.50;;;15.50;74.30;;;;;;5113309;28;20030;-84
2023/05/19 08:23:21;;;;;;;5.47;3.33;;;15.60;74.00;;;;;;5079429;28;20382;-85
2023/05/19 08:25:47;;;;;;;5.72;2.90;;;15.60;73.80;;;;;;5113357;28;20020;-84
2023/05/19 08:28:13;;;;;;;7.40;3.30;;;15.70;74.70;;;;;;5113053;28;20100;-84
2023/05/19 08:30:38;;;;;;;5.30;3.00;;;15.80;74.00;;;;;;5079419;28;20385;-84
2023/05/19 08:33:05;;;;;;;9.23;2.90;;;15.90;73.10;;;;;;5112990;28;20019;-84
2023/05/19 08:35:30;;;;;;;5.88;2.90;;;16.00;71.20;;;;;;5114238;27;20044;-84
2023/05/19 08:37:56;;;;;;;7.18;3.22;;;16.10;70.20;;;;;;5131261;27;20053;-84
2023/05/19 08:40:22;;;;;;;6.05;2.95;;;16.20;70.30;;;;;;5122328;27;20122;-84
2023/05/19 08:42:48;;;;;;;6.97;3.05;;;16.30;70.80;;;;;;5132497;27;20019;-84
2023/05/19 08:45:14;;;;;;;6.53;3.25;;;16.30;71.00;;;;;;5133270;27;20077;-83
2023/05/19 08:47:41;;;;;;;6.45;2.80;;;16.40;71.20;;;;;;5139058;27;20495;-77
2023/05/19 08:50:09;;;;;;;6.03;3.00;;;16.50;70.20;;;;;;5133514;27;20366;-85
2023/05/19 08:53:00;;;;;;;7.47;3.28;;;16.60;70.00;;;;;;5116603;27;20058;-84
2023/05/19 08:55:57;;;;;;;5.25;2.40;;;16.60;70.20;;;;;;5134451;27;20384;-84
2023/05/19 08:58:25;;;;;;;3.75;2.13;;;16.70;67.70;;;;;;5133093;27;20033;-84
2023/05/19 09:00:52;;;;;;;5.50;2.20;;;16.70;67.90;;;;;;5133236;27;20518;-84
2023/05/19 09:03:19;;;;;;;6.32;2.10;;;16.80;66.70;;;;;;5133203;27;20080;-76
2023/05/19 09:05:45;;;;;;;5.18;2.33;;;16.90;66.70;;;;;;5134302;27;20031;-85
2023/05/19 09:08:11;;;;;;;7.40;2.40;;;16.90;65.60;;;;;;5133116;27;20118;-85
2023/05/19 09:10:37;;;;;;;7.45;3.25;;;17.00;65.70;;;;;;5133083;27;20496;-85
2023/05/19 09:13:04;;;;;;;5.97;2.78;;;17.00;65.10;;;;;;5115881;27;20034;-85
2023/05/19 09:15:31;;;;;;;4.88;2.70;;;17.10;66.10;;;;;;5115628;27;20088;-84
2023/05/19 09:18:11;;;;;;;5.15;2.60;;;17.20;66.40;;;;;;5133666;27;20072;-85
2023/05/19 09:20:40;;;;;;;5.72;3.20;;;17.30;66.30;;;;;;5132881;27;20047;-85
2023/05/19 09:23:06;;;;;;;6.68;3.00;;;17.40;66.20;;;;;;5132933;27;20094;-85
2023/05/19 09:25:32;;;;;;;5.85;2.85;;;17.50;66.50;;;;;;5115814;27;20019;-85
2023/05/19 09:27:58;;;;;;;6.25;3.05;;;17.60;65.90;;;;;;5115603;27;20031;-85
2023/05/19 09:30:24;;;;;;;7.65;2.63;;;17.70;64.60;;;;;;5098485;27;20033;-85
2023/05/19 09:32:50;;;;;;;5.53;2.22;;;17.70;64.40;;;;;;5098907;27;20023;-85
2023/05/19 09:35:19;;;;;;;7.78;2.28;;;17.80;59.80;;;;;;5115415;28;20460;-84
2023/05/19 09:37:45;;;;;;;5.93;2.00;;;17.80;57.20;;;;;;5133875;27;20094;-85
2023/05/19 09:40:13;;;;;;;6.78;2.10;;;17.80;58.90;;;;;;5132520;27;20389;-85
2023/05/19 09:42:40;;;;;;;6.45;2.47;;;17.90;57.40;;;;;;5115244;27;20050;-85
2023/05/19 09:45:10;;;;;;;2.75;1.77;;;17.90;57.50;;;;;;5115413;28;20023;-84
2023/05/19 09:47:37;;;;;;;6.65;1.85;;;18.00;54.50;;;;;;5115657;27;20037;-85
2023/05/19 09:50:10;;;;;;;4.95;2.13;;;17.90;54.70;;;;;;5115335;27;20576;-85
2023/05/19 09:52:42;;;;;;;4.22;1.88;;;18.00;56.60;;;;;;5115227;27;20027;-84
2023/05/19 09:55:10;;;;;;;4.72;1.80;;;18.10;56.50;;;;;;5132439;27;20023;-85
2023/05/19 09:57:36;;;;;;;3.97;1.73;;;18.10;56.60;;;;;;5133569;27;20027;-85
2023/05/19 10:00:24;;;;;;;4.90;1.70;;;18.20;56.20;;;;;;5115268;28;20388;-85
2023/05/19 10:02:51;;;;;;;2.58;1.70;;;18.30;55.10;;;;;;5117669;28;20023;-85
2023/05/19 10:05:21;;;;;;;3.75;1.65;;;18.30;55.20;;;;;;5098253;28;20077;-85
2023/05/19 10:07:50;;;;;;;3.67;1.90;;;18.20;53.90;;;;;;5132208;27;20028;-85
2023/05/19 10:10:19;;;;;;;5.53;2.00;;;18.10;54.40;;;;;;5131958;27;20130;-84
2023/05/19 10:12:45;;;;;;;5.32;1.90;;;18.10;55.80;;;;;;5115462;28;20023;-84
2023/05/19 10:15:13;;;;;;;6.22;1.90;;;18.10;56.10;;;;;;5131922;27;20015;-84
2023/05/19 10:17:40;;;;;;;4.72;1.58;;;18.10;56.10;;;;;;5115347;28;20023;-84
2023/05/19 10:20:14;;;;;;;4.38;1.58;;;18.20;56.20;;;;;;5132138;27;20574;-84
2023/05/19 10:22:42;;;;;;;5.43;1.98;;;18.30;57.70;;;;;;5131998;28;20023;-84
2023/05/19 10:25:10;;;;;;;6.20;2.10;;;18.30;54.30;;;;;;5132091;27;20011;-84
2023/05/19 10:27:43;;;;;;;3.95;1.63;;;18.30;54.20;;;;;;5131825;27;20057;-84
2023/05/19 10:30:17;;;;;;;4.78;1.90;;;18.30;54.20;;;;;;5132366;27;20016;-84
2023/05/19 10:32:45;;;;;;;5.53;2.03;;;18.30;54.50;;;;;;5135970;27;20534;-84
2023/05/19 10:35:37;;;;;;;4.47;1.77;;;18.40;54.70;;;;;;5135973;27;20487;-84
2023/05/19 10:38:20;;;;;;;4.00;1.80;;;18.50;54.10;;;;;;5137346;27;20027;-84
2023/05/19 10:40:56;;;;;;;7.97;2.35;;;18.50;54.90;;;;;;5135813;27;20023;-84
2023/05/19 10:43:48;;;;;;;3.47;1.90;;;18.70;52.70;;;;;;5137181;27;20030;-84
2023/05/19 10:46:13;;;;;;;3.97;1.88;;;18.80;50.80;;;;;;5135589;27;20035;-84
2023/05/19 10:48:44;;;;;;;6.45;2.53;;;18.80;53.20;;;;;;5118485;27;20114;-84
2023/05/19 10:51:11;;;;;;;3.83;2.17;;;18.90;53.40;;;;;;5118587;27;20392;-84
2023/05/19 10:53:44;;;;;;;6.65;2.30;;;18.90;50.40;;;;;;5101798;27;20409;-84
2023/05/19 10:56:11;;;;;;;5.13;2.20;;;18.80;49.90;;;;;;5134909;27;20114;-84
2023/05/19 10:58:42;;;;;;;3.75;2.00;;;18.70;50.00;;;;;;5101578;27;20380;-84
2023/05/19 11:01:16;;;;;;;7.13;2.63;;;18.90;53.30;;;;;;5135589;27;20514;-84
2023/05/19 11:03:48;;;;;;;6.95;2.25;;;19.10;51.20;;;;;;5135574;27;20562;-84
2023/05/19 11:06:21;;;;;;;4.65;1.90;;;19.10;49.40;;;;;;5136391;27;20023;-84
2023/05/19 11:08:51;;;;;;;6.22;2.80;;;19.10;50.60;;;;;;5136327;27;20033;-84
2023/05/19 11:11:16;;;;;;;4.22;1.80;;;19.10;50.00;;;;;;5135293;27;20027;-84
2023/05/19 11:13:47;;;;;;;6.68;1.90;;;19.10;50.60;;;;;;5118119;27;20035;-84
2023/05/19 11:16:13;;;;;;;4.28;2.38;;;19.20;50.20;;;;;;5135006;27;20023;-84
2023/05/19 11:18:39;;;;;;;6.00;2.10;;;19.30;50.70;;;;;;5135164;27;20370;-84
2023/05/19 11:21:05;;;;;;;3.83;2.03;;;19.50;50.10;;;;;;5117790;27;20076;-84
2023/05/19 11:23:37;;;;;;;5.70;2.10;;;19.60;50.70;;;;;;5118838;27;20486;-84
2023/05/19 11:26:02;;;;;;;5.43;1.98;;;19.70;49.00;;;;;;5155815;27;20042;-84
2023/05/19 11:28:29;;;;;;;5.05;2.50;;;19.70;47.70;;;;;;5138465;27;20114;-84
2023/05/19 11:30:57;;;;;;;5.07;2.08;;;19.70;49.10;;;;;;5147410;27;20430;-84
2023/05/19 11:33:27;;;;;;;5.03;2.50;;;19.70;49.40;;;;;;5146177;27;20015;-84
2023/05/19 11:35:59;;;;;;;5.05;2.00;;;19.80;49.80;;;;;;5146191;27;20015;-85
2023/05/19 11:38:26;;;;;;;4.43;2.20;;;19.80;47.90;;;;;;5146992;27;20019;-85
2023/05/19 11:40:53;;;;;;;5.53;2.05;;;19.80;48.60;;;;;;5147197;27;20025;-85
2023/05/19 11:43:22;;;;;;;4.35;1.90;;;19.80;47.70;;;;;;5155429;27;20026;-85
2023/05/19 11:45:48;;;;;;;6.85;2.20;;;19.90;49.30;;;;;;5155433;27;20034;-85
2023/05/19 11:48:17;;;;;;;5.47;1.90;;;20.10;50.90;;;;;;5138092;27;20027;-84
2023/05/19 11:50:42;;;;;;;5.15;2.00;;;20.20;49.10;;;;;;5155617;27;20071;-84
2023/05/19 11:53:15;;;;;;;7.40;1.67;;;20.40;48.40;;;;;;5155466;27;20022;-85
2023/05/19 11:55:49;;;;;;;3.75;1.90;;;20.50;48.80;;;;;;5130701;27;20480;-84
2023/05/19 11:58:15;;;;;;;5.20;1.95;;;20.60;47.10;;;;;;5116884;27;20502;-84
2023/05/19 12:00:44;;;;;;;3.83;1.83;;;20.60;48.20;;;;;;5133971;27;20019;-85
2023/05/19 12:03:10;;;;;;;3.28;1.90;;;20.60;48.50;;;;;;5117586;27;20392;-85
2023/05/19 12:05:38;;;;;;;4.07;1.70;;;20.70;49.40;;;;;;5096736;28;20027;-85
2023/05/19 12:08:04;;;;;;;4.00;1.65;;;20.80;48.10;;;;;;5127920;27;20050;-85
2023/05/19 12:10:32;;;;;;;7.40;1.88;;;20.90;48.80;;;;;;5133560;27;20488;-85
2023/05/19 12:12:59;;;;;;;4.70;1.90;;;21.00;48.20;;;;;;5113823;27;20073;-84
2023/05/19 12:15:25;;;;;;;6.38;2.42;;;21.00;47.60;;;;;;5113672;28;20032;-85
2023/05/19 12:17:59;;;;;;;5.80;3.00;;;21.10;47.60;;;;;;5130580;27;20376;-85
2023/05/19 12:20:26;;;;;;;4.18;1.60;;;21.20;47.70;;;;;;5133564;27;20473;-85
2023/05/19 12:22:56;;;;;;;6.72;2.35;;;21.20;46.90;;;;;;5114319;27;20026;-85
2023/05/19 12:25:23;;;;;;;3.55;2.10;;;21.10;46.70;;;;;;5126177;27;20045;-85
2023/05/19 12:27:51;;;;;;;7.50;2.13;;;21.10;46.40;;;;;;5128306;27;20072;-85
2023/05/19 12:30:17;;;;;;;4.40;2.13;;;21.00;46.20;;;;;;5142036;27;20017;-85
2023/05/19 12:32:44;;;;;;;5.10;1.88;;;21.10;47.20;;;;;;5115984;27;20027;-85
2023/05/19 12:35:10;;;;;;;4.05;1.88;;;21.20;46.60;;;;;;5115894;27;20030;-85
2023/05/19 12:37:40;;;;;;;4.35;2.03;;;21.20;46.00;;;;;;5099647;27;20391;-85
2023/05/19 12:40:06;;;;;;;5.03;2.08;;;21.20;45.30;;;;;;5134975;27;20026;-84
2023/05/19 12:42:33;;;;;;;8.90;2.55;;;21.30;45.00;;;;;;5098725;27;20392;-85
2023/05/19 12:45:01;;;;;;;4.07;1.90;;;21.20;41.80;;;;;;5099616;27;20060;-85
2023/05/19 12:47:34;;;;;;;5.47;2.13;;;21.00;43.00;;;;;;5134721;27;20031;-85